sensor_id;sensor_type;location;lat;lon;timestamp;P1;durP1;ratioP1;P2;durP2;ratioP2
21591;SDS011;10958;50.892;3.992;2023-08-30T00:00:49;4.88;;;3.97;;
21591;SDS011;10958;50.892;3.992;2023-08-30T00:03:18;9.82;;;4.13;;
21591;SDS011;10958;50.892;3.992;2023-08-30T00:05:48;6.43;;;4.35;;
21591;SDS011;10958;50.892;3.992;2023-08-30T00:08:14;6.43;;;4.50;;
21591;SDS011;10958;50.892;3.992;2023-08-30T00:10:44;6.60;;;3.90;;
21591;SDS011;10958;50.892;3.992;2023-08-30T00:13:12;5.63;;;3.92;;
21591;SDS011;10958;50.892;3.992;2023-08-30T00:15:38;5.85;;;4.22;;
21591;SDS011;10958;50.892;3.992;2023-08-30T00:18:04;6.35;;;4.53;;
21591;SDS011;10958;50.892;3.992;2023-08-30T00:20:30;7.47;;;4.72;;
21591;SDS011;10958;50.892;3.992;2023-08-30T00:22:58;6.90;;;4.65;;
21591;SDS011;10958;50.892;3.992;2023-08-30T00:25:24;9.07;;;4.38;;
21591;SDS011;10958;50.892;3.992;2023-08-30T00:27:50;7.38;;;4.55;;
21591;SDS011;10958;50.892;3.992;2023-08-30T00:30:18;8.65;;;4.20;;
21591;SDS011;10958;50.892;3.992;2023-08-30T00:32:44;7.80;;;4.63;;
21591;SDS011;10958;50.892;3.992;2023-08-30T00:35:09;7.25;;;4.38;;
21591;SDS011;10958;50.892;3.992;2023-08-30T00:37:35;6.30;;;4.55;;
21591;SDS011;10958;50.892;3.992;2023-08-30T00:40:01;7.13;;;4.78;;
21591;SDS011;10958;50.892;3.992;2023-08-30T00:42:27;8.00;;;4.57;;
21591;SDS011;10958;50.892;3.992;2023-08-30T00:44:52;7.70;;;5.18;;
21591;SDS011;10958;50.892;3.992;2023-08-30T00:47:18;6.95;;;4.68;;
21591;SDS011;10958;50.892;3.992;2023-08-30T00:49:44;10.20;;;5.07;;
21591;SDS011;10958;50.892;3.992;2023-08-30T00:52:11;8.63;;;5.07;;
21591;SDS011;10958;50.892;3.992;2023-08-30T00:54:38;6.93;;;4.80;;
21591;SDS011;10958;50.892;3.992;2023-08-30T00:57:04;8.25;;;5.13;;
21591;SDS011;10958;50.892;3.992;2023-08-30T00:59:32;6.35;;;4.72;;
21591;SDS011;10958;50.892;3.992;2023-08-30T01:01:58;7.00;;;5.03;;
21591;SDS011;10958;50.892;3.992;2023-08-30T01:04:27;6.50;;;4.63;;
21591;SDS011;10958;50.892;3.992;2023-08-30T01:06:53;7.43;;;5.05;;
21591;SDS011;10958;50.892;3.992;2023-08-30T01:09:19;6.32;;;4.88;;
21591;SDS011;10958;50.892;3.992;2023-08-30T01:14:40;8.20;;;5.47;;
21591;SDS011;10958;50.892;3.992;2023-08-30T01:17:10;7.55;;;5.28;;
21591;SDS011;10958;50.892;3.992;2023-08-30T01:22:14;7.13;;;5.32;;
21591;SDS011;10958;50.892;3.992;2023-08-30T01:28:00;10.05;;;5.35;;
21591;SDS011;10958;50.892;3.992;2023-08-30T01:30:29;7.50;;;5.43;;
21591;SDS011;10958;50.892;3.992;2023-08-30T01:33:02;7.97;;;5.38;;
21591;SDS011;10958;50.892;3.992;2023-08-30T01:35:32;7.97;;;5.85;;
21591;SDS011;10958;50.892;3.992;2023-08-30T01:38:01;8.65;;;5.60;;
21591;SDS011;10958;50.892;3.992;2023-08-30T01:40:33;8.32;;;6.10;;
21591;SDS011;10958;50.892;3.992;2023-08-30T01:43:01;7.30;;;5.85;;
21591;SDS011;10958;50.892;3.992;2023-08-30T01:45:30;8.90;;;6.10;;
21591;SDS011;10958;50.892;3.992;2023-08-30T01:48:02;6.75;;;5.65;;
21591;SDS011;10958;50.892;3.992;2023-08-30T01:50:30;9.98;;;6.28;;
21591;SDS011;10958;50.892;3.992;2023-08-30T01:52:57;11.00;;;6.40;;
21591;SDS011;10958;50.892;3.992;2023-08-30T01:55:23;6.70;;;5.57;;
21591;SDS011;10958;50.892;3.992;2023-08-30T01:57:51;10.97;;;6.07;;
21591;SDS011;10958;50.892;3.992;2023-08-30T02:00:19;10.60;;;6.23;;
21591;SDS011;10958;50.892;3.992;2023-08-30T02:02:46;7.25;;;5.65;;
21591;SDS011;10958;50.892;3.992;2023-08-30T02:05:13;8.18;;;5.80;;
21591;SDS011;10958;50.892;3.992;2023-08-30T02:07:51;9.55;;;5.97;;
21591;SDS011;10958;50.892;3.992;2023-08-30T02:10:35;8.10;;;5.30;;
21591;SDS011;10958;50.892;3.992;2023-08-30T02:13:04;8.30;;;5.60;;
21591;SDS011;10958;50.892;3.992;2023-08-30T02:15:31;12.95;;;5.90;;
21591;SDS011;10958;50.892;3.992;2023-08-30T02:17:59;8.47;;;4.67;;
21591;SDS011;10958;50.892;3.992;2023-08-30T02:20:25;11.43;;;5.80;;
21591;SDS011;10958;50.892;3.992;2023-08-30T02:22:54;9.07;;;5.78;;
21591;SDS011;10958;50.892;3.992;2023-08-30T02:25:23;7.95;;;5.88;;
21591;SDS011;10958;50.892;3.992;2023-08-30T02:27:49;8.75;;;5.95;;
21591;SDS011;10958;50.892;3.992;2023-08-30T02:30:14;8.88;;;5.65;;
21591;SDS011;10958;50.892;3.992;2023-08-30T02:32:42;6.95;;;5.68;;
21591;SDS011;10958;50.892;3.992;2023-08-30T02:35:08;11.43;;;6.35;;
21591;SDS011;10958;50.892;3.992;2023-08-30T02:37:34;9.73;;;6.10;;
21591;SDS011;10958;50.892;3.992;2023-08-30T02:40:00;7.97;;;5.57;;
21591;SDS011;10958;50.892;3.992;2023-08-30T02:42:26;9.65;;;5.75;;
21591;SDS011;10958;50.892;3.992;2023-08-30T02:44:51;7.97;;;5.78;;
21591;SDS011;10958;50.892;3.992;2023-08-30T02:47:18;7.70;;;5.70;;
21591;SDS011;10958;50.892;3.992;2023-08-30T02:49:43;8.50;;;5.88;;
21591;SDS011;10958;50.892;3.992;2023-08-30T02:52:09;8.10;;;5.82;;
21591;SDS011;10958;50.892;3.992;2023-08-30T02:54:35;10.60;;;5.95;;
21591;SDS011;10958;50.892;3.992;2023-08-30T02:57:00;7.35;;;5.68;;
21591;SDS011;10958;50.892;3.992;2023-08-30T02:59:26;10.60;;;5.68;;
21591;SDS011;10958;50.892;3.992;2023-08-30T03:01:54;8.93;;;5.63;;
21591;SDS011;10958;50.892;3.992;2023-08-30T03:04:19;9.73;;;5.43;;
21591;SDS011;10958;50.892;3.992;2023-08-30T03:06:45;8.43;;;5.68;;
21591;SDS011;10958;50.892;3.992;2023-08-30T03:09:11;8.57;;;5.40;;
21591;SDS011;10958;50.892;3.992;2023-08-30T03:11:39;7.18;;;5.13;;
21591;SDS011;10958;50.892;3.992;2023-08-30T03:14:05;11.15;;;5.88;;
21591;SDS011;10958;50.892;3.992;2023-08-30T03:16:33;8.18;;;5.50;;
21591;SDS011;10958;50.892;3.992;2023-08-30T03:18:58;8.15;;;6.00;;
21591;SDS011;10958;50.892;3.992;2023-08-30T03:21:25;10.73;;;5.82;;
21591;SDS011;10958;50.892;3.992;2023-08-30T03:23:53;9.45;;;5.47;;
21591;SDS011;10958;50.892;3.992;2023-08-30T03:26:19;9.57;;;5.95;;
21591;SDS011;10958;50.892;3.992;2023-08-30T03:28:47;9.63;;;5.97;;
21591;SDS011;10958;50.892;3.992;2023-08-30T03:31:16;9.88;;;6.28;;
21591;SDS011;10958;50.892;3.992;2023-08-30T03:33:43;6.30;;;5.28;;
21591;SDS011;10958;50.892;3.992;2023-08-30T03:36:10;9.55;;;5.65;;
21591;SDS011;10958;50.892;3.992;2023-08-30T03:38:40;10.35;;;6.20;;
21591;SDS011;10958;50.892;3.992;2023-08-30T03:41:06;11.93;;;6.05;;
21591;SDS011;10958;50.892;3.992;2023-08-30T03:43:32;11.77;;;6.35;;
21591;SDS011;10958;50.892;3.992;2023-08-30T03:45:59;10.40;;;6.47;;
21591;SDS011;10958;50.892;3.992;2023-08-30T03:48:26;10.25;;;6.22;;
21591;SDS011;10958;50.892;3.992;2023-08-30T03:50:52;10.65;;;6.28;;
21591;SDS011;10958;50.892;3.992;2023-08-30T03:53:18;9.13;;;6.13;;
21591;SDS011;10958;50.892;3.992;2023-08-30T03:55:44;9.10;;;6.10;;
21591;SDS011;10958;50.892;3.992;2023-08-30T03:58:10;10.15;;;6.70;;
21591;SDS011;10958;50.892;3.992;2023-08-30T04:00:36;12.32;;;6.07;;
21591;SDS011;10958;50.892;3.992;2023-08-30T04:03:03;11.18;;;6.10;;
21591;SDS011;10958;50.892;3.992;2023-08-30T04:05:35;10.48;;;6.13;;
21591;SDS011;10958;50.892;3.992;2023-08-30T04:08:02;11.57;;;6.25;;
21591;SDS011;10958;50.892;3.992;2023-08-30T04:10:34;9.82;;;5.72;;
21591;SDS011;10958;50.892;3.992;2023-08-30T04:13:03;9.50;;;5.25;;
21591;SDS011;10958;50.892;3.992;2023-08-30T04:15:33;8.73;;;5.55;;
21591;SDS011;10958;50.892;3.992;2023-08-30T04:18:00;11.52;;;5.90;;
21591;SDS011;10958;50.892;3.992;2023-08-30T04:20:26;9.30;;;6.05;;
21591;SDS011;10958;50.892;3.992;2023-08-30T04:22:52;11.35;;;6.63;;
21591;SDS011;10958;50.892;3.992;2023-08-30T04:25:20;12.45;;;6.32;;
21591;SDS011;10958;50.892;3.992;2023-08-30T04:27:45;8.80;;;6.00;;
21591;SDS011;10958;50.892;3.992;2023-08-30T04:30:13;12.07;;;5.88;;
21591;SDS011;10958;50.892;3.992;2023-08-30T04:32:40;9.82;;;6.20;;
21591;SDS011;10958;50.892;3.992;2023-08-30T04:35:08;9.98;;;6.57;;
21591;SDS011;10958;50.892;3.992;2023-08-30T04:37:34;8.43;;;6.18;;
21591;SDS011;10958;50.892;3.992;2023-08-30T04:40:03;10.18;;;5.68;;
21591;SDS011;10958;50.892;3.992;2023-08-30T04:42:29;10.25;;;6.10;;
21591;SDS011;10958;50.892;3.992;2023-08-30T04:44:55;7.57;;;5.25;;
21591;SDS011;10958;50.892;3.992;2023-08-30T04:47:21;7.18;;;5.55;;
21591;SDS011;10958;50.892;3.992;2023-08-30T04:49:53;7.75;;;5.65;;
21591;SDS011;10958;50.892;3.992;2023-08-30T04:52:18;8.85;;;5.70;;
21591;SDS011;10958;50.892;3.992;2023-08-30T04:54:44;8.80;;;5.72;;
21591;SDS011;10958;50.892;3.992;2023-08-30T04:57:10;9.15;;;6.32;;
21591;SDS011;10958;50.892;3.992;2023-08-30T04:59:39;9.65;;;5.60;;
21591;SDS011;10958;50.892;3.992;2023-08-30T05:02:06;8.52;;;5.70;;
21591;SDS011;10958;50.892;3.992;2023-08-30T05:04:31;8.75;;;5.63;;
21591;SDS011;10958;50.892;3.992;2023-08-30T05:06:57;6.32;;;5.35;;
21591;SDS011;10958;50.892;3.992;2023-08-30T05:09:23;11.07;;;5.97;;
21591;SDS011;10958;50.892;3.992;2023-08-30T05:11:51;6.38;;;5.28;;
21591;SDS011;10958;50.892;3.992;2023-08-30T05:14:17;7.18;;;5.47;;
21591;SDS011;10958;50.892;3.992;2023-08-30T05:16:43;7.95;;;5.78;;
21591;SDS011;10958;50.892;3.992;2023-08-30T05:19:11;8.30;;;6.15;;
21591;SDS011;10958;50.892;3.992;2023-08-30T05:21:36;9.23;;;6.20;;
21591;SDS011;10958;50.892;3.992;2023-08-30T05:24:02;9.27;;;6.35;;
21591;SDS011;10958;50.892;3.992;2023-08-30T05:26:30;8.27;;;6.30;;
21591;SDS011;10958;50.892;3.992;2023-08-30T05:28:56;12.27;;;7.00;;
21591;SDS011;10958;50.892;3.992;2023-08-30T05:31:24;9.80;;;6.80;;
21591;SDS011;10958;50.892;3.992;2023-08-30T05:33:52;9.85;;;7.28;;
21591;SDS011;10958;50.892;3.992;2023-08-30T05:36:18;7.82;;;6.30;;
21591;SDS011;10958;50.892;3.992;2023-08-30T05:38:45;8.57;;;6.10;;
21591;SDS011;10958;50.892;3.992;2023-08-30T05:41:14;7.85;;;6.90;;
21591;SDS011;10958;50.892;3.992;2023-08-30T05:43:39;10.05;;;6.97;;
21591;SDS011;10958;50.892;3.992;2023-08-30T05:46:08;10.02;;;6.40;;
21591;SDS011;10958;50.892;3.992;2023-08-30T05:48:39;9.50;;;6.43;;
21591;SDS011;10958;50.892;3.992;2023-08-30T05:51:05;7.82;;;6.68;;
21591;SDS011;10958;50.892;3.992;2023-08-30T05:53:31;7.53;;;6.32;;
21591;SDS011;10958;50.892;3.992;2023-08-30T05:55:56;10.98;;;6.63;;
21591;SDS011;10958;50.892;3.992;2023-08-30T05:58:24;9.50;;;7.22;;
21591;SDS011;10958;50.892;3.992;2023-08-30T06:00:50;10.00;;;7.00;;
21591;SDS011;10958;50.892;3.992;2023-08-30T06:03:15;11.38;;;6.53;;
21591;SDS011;10958;50.892;3.992;2023-08-30T06:05:41;9.55;;;7.25;;
21591;SDS011;10958;50.892;3.992;2023-08-30T06:08:08;9.20;;;6.50;;
21591;SDS011;10958;50.892;3.992;2023-08-30T06:10:34;11.82;;;6.50;;
21591;SDS011;10958;50.892;3.992;2023-08-30T06:13:01;9.63;;;7.03;;
21591;SDS011;10958;50.892;3.992;2023-08-30T06:15:30;11.35;;;6.95;;
21591;SDS011;10958;50.892;3.992;2023-08-30T06:17:58;10.03;;;7.27;;
21591;SDS011;10958;50.892;3.992;2023-08-30T06:20:24;8.50;;;6.47;;
21591;SDS011;10958;50.892;3.992;2023-08-30T06:22:49;10.32;;;6.20;;
21591;SDS011;10958;50.892;3.992;2023-08-30T06:25:15;9.57;;;6.40;;
21591;SDS011;10958;50.892;3.992;2023-08-30T06:27:42;10.20;;;6.00;;
21591;SDS011;10958;50.892;3.992;2023-08-30T06:30:20;8.48;;;6.22;;
21591;SDS011;10958;50.892;3.992;2023-08-30T06:32:45;6.20;;;5.60;;
21591;SDS011;10958;50.892;3.992;2023-08-30T06:35:11;9.98;;;6.47;;
21591;SDS011;10958;50.892;3.992;2023-08-30T06:37:39;7.82;;;5.03;;
21591;SDS011;10958;50.892;3.992;2023-08-30T06:40:07;10.50;;;5.77;;
21591;SDS011;10958;50.892;3.992;2023-08-30T06:42:35;8.38;;;5.75;;
21591;SDS011;10958;50.892;3.992;2023-08-30T06:45:01;10.63;;;6.60;;
21591;SDS011;10958;50.892;3.992;2023-08-30T06:47:29;8.45;;;6.05;;
21591;SDS011;10958;50.892;3.992;2023-08-30T06:49:55;7.20;;;5.70;;
21591;SDS011;10958;50.892;3.992;2023-08-30T06:52:21;8.05;;;6.20;;
21591;SDS011;10958;50.892;3.992;2023-08-30T06:54:47;7.32;;;5.70;;
21591;SDS011;10958;50.892;3.992;2023-08-30T06:57:12;9.38;;;5.85;;
21591;SDS011;10958;50.892;3.992;2023-08-30T06:59:38;6.22;;;5.22;;
21591;SDS011;10958;50.892;3.992;2023-08-30T07:02:07;7.03;;;5.65;;
21591;SDS011;10958;50.892;3.992;2023-08-30T07:04:36;8.55;;;5.10;;
21591;SDS011;10958;50.892;3.992;2023-08-30T07:07:02;6.05;;;4.88;;
21591;SDS011;10958;50.892;3.992;2023-08-30T07:09:28;6.00;;;5.07;;
21591;SDS011;10958;50.892;3.992;2023-08-30T07:11:54;8.40;;;5.15;;
21591;SDS011;10958;50.892;3.992;2023-08-30T07:14:20;6.32;;;4.80;;
21591;SDS011;10958;50.892;3.992;2023-08-30T07:16:46;6.80;;;5.30;;
21591;SDS011;10958;50.892;3.992;2023-08-30T07:19:14;8.00;;;5.25;;
21591;SDS011;10958;50.892;3.992;2023-08-30T07:21:40;7.00;;;5.15;;
21591;SDS011;10958;50.892;3.992;2023-08-30T07:26:35;6.32;;;5.13;;
21591;SDS011;10958;50.892;3.992;2023-08-30T07:29:04;7.53;;;5.20;;
21591;SDS011;10958;50.892;3.992;2023-08-30T07:31:35;6.43;;;5.07;;
21591;SDS011;10958;50.892;3.992;2023-08-30T07:34:00;7.10;;;4.97;;
21591;SDS011;10958;50.892;3.992;2023-08-30T07:36:26;6.28;;;5.18;;
21591;SDS011;10958;50.892;3.992;2023-08-30T07:38:53;7.43;;;5.97;;
21591;SDS011;10958;50.892;3.992;2023-08-30T07:41:19;9.07;;;7.20;;
21591;SDS011;10958;50.892;3.992;2023-08-30T07:43:45;9.38;;;6.78;;
21591;SDS011;10958;50.892;3.992;2023-08-30T07:46:10;15.57;;;11.98;;
21591;SDS011;10958;50.892;3.992;2023-08-30T07:48:36;6.93;;;6.22;;
21591;SDS011;10958;50.892;3.992;2023-08-30T07:51:02;8.02;;;7.22;;
21591;SDS011;10958;50.892;3.992;2023-08-30T07:53:27;7.78;;;6.32;;
21591;SDS011;10958;50.892;3.992;2023-08-30T07:55:55;7.00;;;6.30;;
21591;SDS011;10958;50.892;3.992;2023-08-30T07:58:23;8.48;;;6.82;;
21591;SDS011;10958;50.892;3.992;2023-08-30T08:00:52;10.52;;;6.97;;
21591;SDS011;10958;50.892;3.992;2023-08-30T08:03:19;9.85;;;6.90;;
21591;SDS011;10958;50.892;3.992;2023-08-30T08:08:15;10.07;;;7.93;;
21591;SDS011;10958;50.892;3.992;2023-08-30T08:10:42;11.70;;;7.70;;
21591;SDS011;10958;50.892;3.992;2023-08-30T08:13:08;8.40;;;7.50;;
21591;SDS011;10958;50.892;3.992;2023-08-30T08:15:36;9.63;;;7.55;;
21591;SDS011;10958;50.892;3.992;2023-08-30T08:18:04;9.02;;;7.53;;
21591;SDS011;10958;50.892;3.992;2023-08-30T08:20:30;10.45;;;8.00;;
21591;SDS011;10958;50.892;3.992;2023-08-30T08:22:56;9.48;;;7.40;;
21591;SDS011;10958;50.892;3.992;2023-08-30T08:25:21;10.25;;;7.70;;
21591;SDS011;10958;50.892;3.992;2023-08-30T08:27:48;12.38;;;8.50;;
21591;SDS011;10958;50.892;3.992;2023-08-30T08:30:15;9.40;;;7.65;;
21591;SDS011;10958;50.892;3.992;2023-08-30T08:32:41;9.35;;;6.85;;
21591;SDS011;10958;50.892;3.992;2023-08-30T08:35:07;12.95;;;8.52;;
21591;SDS011;10958;50.892;3.992;2023-08-30T08:37:33;8.40;;;6.55;;
21591;SDS011;10958;50.892;3.992;2023-08-30T08:39:59;8.30;;;6.07;;
21591;SDS011;10958;50.892;3.992;2023-08-30T08:42:24;9.48;;;6.43;;
21591;SDS011;10958;50.892;3.992;2023-08-30T08:44:51;7.25;;;6.45;;
21591;SDS011;10958;50.892;3.992;2023-08-30T08:47:19;6.07;;;5.47;;
21591;SDS011;10958;50.892;3.992;2023-08-30T08:49:45;6.30;;;5.05;;
21591;SDS011;10958;50.892;3.992;2023-08-30T08:52:16;5.80;;;4.97;;
21591;SDS011;10958;50.892;3.992;2023-08-30T08:54:42;6.38;;;4.07;;
21591;SDS011;10958;50.892;3.992;2023-08-30T08:57:09;4.38;;;3.72;;
21591;SDS011;10958;50.892;3.992;2023-08-30T08:59:38;5.88;;;4.05;;
21591;SDS011;10958;50.892;3.992;2023-08-30T09:02:04;5.00;;;4.15;;
21591;SDS011;10958;50.892;3.992;2023-08-30T09:04:31;6.97;;;3.67;;
21591;SDS011;10958;50.892;3.992;2023-08-30T09:06:59;8.88;;;4.50;;
21591;SDS011;10958;50.892;3.992;2023-08-30T09:09:26;6.78;;;4.30;;
21591;SDS011;10958;50.892;3.992;2023-08-30T09:11:52;7.25;;;4.63;;
21591;SDS011;10958;50.892;3.992;2023-08-30T09:14:18;6.50;;;4.30;;
21591;SDS011;10958;50.892;3.992;2023-08-30T09:16:57;5.93;;;4.32;;
21591;SDS011;10958;50.892;3.992;2023-08-30T09:19:25;6.60;;;4.18;;
21591;SDS011;10958;50.892;3.992;2023-08-30T09:21:51;8.48;;;4.70;;
21591;SDS011;10958;50.892;3.992;2023-08-30T09:24:21;6.63;;;4.72;;
21591;SDS011;10958;50.892;3.992;2023-08-30T09:26:48;5.43;;;4.68;;
21591;SDS011;10958;50.892;3.992;2023-08-30T09:29:17;6.35;;;5.05;;
21591;SDS011;10958;50.892;3.992;2023-08-30T09:31:43;6.75;;;4.90;;
21591;SDS011;10958;50.892;3.992;2023-08-30T09:34:09;7.50;;;4.30;;
21591;SDS011;10958;50.892;3.992;2023-08-30T09:36:38;6.30;;;4.60;;
21591;SDS011;10958;50.892;3.992;2023-08-30T09:39:11;8.80;;;5.20;;
21591;SDS011;10958;50.892;3.992;2023-08-30T09:41:42;9.20;;;4.53;;
21591;SDS011;10958;50.892;3.992;2023-08-30T09:44:09;8.75;;;4.95;;
21591;SDS011;10958;50.892;3.992;2023-08-30T09:46:52;7.60;;;4.65;;
21591;SDS011;10958;50.892;3.992;2023-08-30T09:49:23;7.47;;;4.70;;
21591;SDS011;10958;50.892;3.992;2023-08-30T09:51:51;7.40;;;4.25;;
21591;SDS011;10958;50.892;3.992;2023-08-30T09:54:18;6.22;;;4.00;;
21591;SDS011;10958;50.892;3.992;2023-08-30T09:56:46;7.25;;;3.70;;
21591;SDS011;10958;50.892;3.992;2023-08-30T09:59:12;6.90;;;4.38;;
21591;SDS011;10958;50.892;3.992;2023-08-30T10:03:36;5.45;;;2.60;;
21591;SDS011;10958;50.892;3.992;2023-08-30T10:06:02;5.03;;;2.50;;
21591;SDS011;10958;50.892;3.992;2023-08-30T10:08:30;6.13;;;2.80;;
21591;SDS011;10958;50.892;3.992;2023-08-30T10:11:02;5.20;;;2.75;;
21591;SDS011;10958;50.892;3.992;2023-08-30T10:13:29;5.93;;;3.22;;
21591;SDS011;10958;50.892;3.992;2023-08-30T10:16:00;5.68;;;2.58;;
21591;SDS011;10958;50.892;3.992;2023-08-30T10:18:29;4.90;;;2.65;;
21591;SDS011;10958;50.892;3.992;2023-08-30T10:20:56;4.03;;;2.50;;
21591;SDS011;10958;50.892;3.992;2023-08-30T10:23:24;8.10;;;2.85;;
21591;SDS011;10958;50.892;3.992;2023-08-30T10:25:51;7.68;;;2.63;;
21591;SDS011;10958;50.892;3.992;2023-08-30T10:28:18;10.15;;;2.20;;
21591;SDS011;10958;50.892;3.992;2023-08-30T10:30:47;5.28;;;2.00;;
21591;SDS011;10958;50.892;3.992;2023-08-30T10:33:13;7.22;;;2.45;;
21591;SDS011;10958;50.892;3.992;2023-08-30T10:35:48;10.43;;;2.40;;
21591;SDS011;10958;50.892;3.992;2023-08-30T10:38:25;6.65;;;2.47;;
21591;SDS011;10958;50.892;3.992;2023-08-30T10:40:52;7.53;;;2.30;;
21591;SDS011;10958;50.892;3.992;2023-08-30T10:43:33;9.40;;;2.70;;
21591;SDS011;10958;50.892;3.992;2023-08-30T10:46:03;7.30;;;1.80;;
21591;SDS011;10958;50.892;3.992;2023-08-30T10:48:38;6.75;;;2.20;;
21591;SDS011;10958;50.892;3.992;2023-08-30T10:51:06;8.10;;;2.03;;
21591;SDS011;10958;50.892;3.992;2023-08-30T10:53:54;9.43;;;2.25;;
21591;SDS011;10958;50.892;3.992;2023-08-30T10:56:26;5.55;;;2.03;;
21591;SDS011;10958;50.892;3.992;2023-08-30T10:58:53;8.68;;;2.53;;
21591;SDS011;10958;50.892;3.992;2023-08-30T11:01:18;8.55;;;2.20;;
21591;SDS011;10958;50.892;3.992;2023-08-30T11:03:44;3.55;;;1.52;;
21591;SDS011;10958;50.892;3.992;2023-08-30T11:06:13;8.68;;;2.50;;
21591;SDS011;10958;50.892;3.992;2023-08-30T11:08:39;9.32;;;2.15;;
21591;SDS011;10958;50.892;3.992;2023-08-30T11:11:05;7.72;;;2.17;;
21591;SDS011;10958;50.892;3.992;2023-08-30T11:13:35;6.68;;;1.92;;
21591;SDS011;10958;50.892;3.992;2023-08-30T11:16:00;8.27;;;2.05;;
21591;SDS011;10958;50.892;3.992;2023-08-30T11:18:29;5.50;;;1.90;;
21591;SDS011;10958;50.892;3.992;2023-08-30T11:21:09;8.95;;;2.13;;
21591;SDS011;10958;50.892;3.992;2023-08-30T11:23:35;6.28;;;1.80;;
21591;SDS011;10958;50.892;3.992;2023-08-30T11:26:01;5.60;;;2.10;;
21591;SDS011;10958;50.892;3.992;2023-08-30T11:28:28;8.18;;;2.10;;
21591;SDS011;10958;50.892;3.992;2023-08-30T11:30:54;8.45;;;2.08;;
21591;SDS011;10958;50.892;3.992;2023-08-30T11:33:23;5.28;;;2.10;;
21591;SDS011;10958;50.892;3.992;2023-08-30T11:35:49;9.15;;;1.88;;
21591;SDS011;10958;50.892;3.992;2023-08-30T11:38:17;8.20;;;2.13;;
21591;SDS011;10958;50.892;3.992;2023-08-30T11:40:44;7.93;;;1.90;;
21591;SDS011;10958;50.892;3.992;2023-08-30T11:45:40;4.22;;;1.40;;
21591;SDS011;10958;50.892;3.992;2023-08-30T11:48:05;7.20;;;1.75;;
21591;SDS011;10958;50.892;3.992;2023-08-30T11:50:34;7.95;;;1.85;;
21591;SDS011;10958;50.892;3.992;2023-08-30T11:53:00;4.72;;;1.25;;
21591;SDS011;10958;50.892;3.992;2023-08-30T11:55:27;5.63;;;1.50;;
21591;SDS011;10958;50.892;3.992;2023-08-30T11:57:53;4.32;;;1.30;;
21591;SDS011;10958;50.892;3.992;2023-08-30T12:00:22;7.15;;;1.50;;
21591;SDS011;10958;50.892;3.992;2023-08-30T12:02:51;6.28;;;1.45;;
21591;SDS011;10958;50.892;3.992;2023-08-30T12:05:16;8.13;;;1.83;;
21591;SDS011;10958;50.892;3.992;2023-08-30T12:07:45;4.07;;;1.20;;
21591;SDS011;10958;50.892;3.992;2023-08-30T12:10:13;3.88;;;1.20;;
21591;SDS011;10958;50.892;3.992;2023-08-30T12:12:46;4.05;;;1.33;;
21591;SDS011;10958;50.892;3.992;2023-08-30T12:15:12;7.05;;;1.10;;
21591;SDS011;10958;50.892;3.992;2023-08-30T12:20:13;3.35;;;1.05;;
21591;SDS011;10958;50.892;3.992;2023-08-30T12:22:41;6.30;;;1.58;;
21591;SDS011;10958;50.892;3.992;2023-08-30T12:25:17;5.13;;;1.33;;
21591;SDS011;10958;50.892;3.992;2023-08-30T12:27:50;5.60;;;1.45;;
21591;SDS011;10958;50.892;3.992;2023-08-30T12:30:19;4.32;;;1.42;;
21591;SDS011;10958;50.892;3.992;2023-08-30T12:32:45;4.68;;;1.40;;
21591;SDS011;10958;50.892;3.992;2023-08-30T12:35:11;7.15;;;1.30;;
21591;SDS011;10958;50.892;3.992;2023-08-30T12:37:39;8.25;;;1.60;;
21591;SDS011;10958;50.892;3.992;2023-08-30T12:40:05;3.60;;;0.90;;
21591;SDS011;10958;50.892;3.992;2023-08-30T12:42:32;3.45;;;0.90;;
21591;SDS011;10958;50.892;3.992;2023-08-30T12:44:58;3.35;;;1.02;;
21591;SDS011;10958;50.892;3.992;2023-08-30T12:47:24;4.35;;;1.25;;
21591;SDS011;10958;50.892;3.992;2023-08-30T12:49:49;8.43;;;1.45;;
21591;SDS011;10958;50.892;3.992;2023-08-30T12:52:20;5.38;;;1.10;;
21591;SDS011;10958;50.892;3.992;2023-08-30T12:54:45;4.93;;;1.40;;
21591;SDS011;10958;50.892;3.992;2023-08-30T12:57:13;4.88;;;1.38;;
21591;SDS011;10958;50.892;3.992;2023-08-30T12:59:40;7.53;;;1.05;;
21591;SDS011;10958;50.892;3.992;2023-08-30T13:02:08;4.03;;;1.00;;
21591;SDS011;10958;50.892;3.992;2023-08-30T13:04:39;5.03;;;1.20;;
21591;SDS011;10958;50.892;3.992;2023-08-30T13:07:07;4.30;;;1.30;;
21591;SDS011;10958;50.892;3.992;2023-08-30T13:09:35;3.92;;;1.20;;
21591;SDS011;10958;50.892;3.992;2023-08-30T13:12:00;6.78;;;1.45;;
21591;SDS011;10958;50.892;3.992;2023-08-30T13:14:29;5.50;;;1.40;;
21591;SDS011;10958;50.892;3.992;2023-08-30T13:16:57;4.70;;;1.35;;
21591;SDS011;10958;50.892;3.992;2023-08-30T13:19:23;3.15;;;1.10;;
21591;SDS011;10958;50.892;3.992;2023-08-30T13:21:48;5.65;;;1.27;;
21591;SDS011;10958;50.892;3.992;2023-08-30T13:24:14;4.53;;;1.33;;
21591;SDS011;10958;50.892;3.992;2023-08-30T13:26:40;5.05;;;1.20;;
21591;SDS011;10958;50.892;3.992;2023-08-30T13:29:07;3.40;;;1.30;;
21591;SDS011;10958;50.892;3.992;2023-08-30T13:31:32;5.53;;;1.15;;
21591;SDS011;10958;50.892;3.992;2023-08-30T13:34:00;4.03;;;1.50;;
21591;SDS011;10958;50.892;3.992;2023-08-30T13:36:26;4.50;;;1.27;;
21591;SDS011;10958;50.892;3.992;2023-08-30T13:38:51;4.57;;;1.52;;
21591;SDS011;10958;50.892;3.992;2023-08-30T13:41:18;1.90;;;0.75;;
21591;SDS011;10958;50.892;3.992;2023-08-30T13:43:43;3.28;;;1.17;;
21591;SDS011;10958;50.892;3.992;2023-08-30T13:46:09;5.40;;;1.13;;
21591;SDS011;10958;50.892;3.992;2023-08-30T13:48:35;5.95;;;1.17;;
21591;SDS011;10958;50.892;3.992;2023-08-30T13:51:01;4.68;;;1.25;;
21591;SDS011;10958;50.892;3.992;2023-08-30T13:53:27;7.53;;;1.33;;
21591;SDS011;10958;50.892;3.992;2023-08-30T13:55:53;4.53;;;1.08;;
21591;SDS011;10958;50.892;3.992;2023-08-30T13:58:18;5.03;;;1.30;;
21591;SDS011;10958;50.892;3.992;2023-08-30T14:00:44;3.63;;;0.90;;
21591;SDS011;10958;50.892;3.992;2023-08-30T14:03:10;3.17;;;1.00;;
21591;SDS011;10958;50.892;3.992;2023-08-30T14:05:36;4.55;;;0.90;;
21591;SDS011;10958;50.892;3.992;2023-08-30T14:10:31;5.18;;;1.33;;
21591;SDS011;10958;50.892;3.992;2023-08-30T14:12:59;5.72;;;1.33;;
21591;SDS011;10958;50.892;3.992;2023-08-30T14:15:25;5.97;;;1.23;;
21591;SDS011;10958;50.892;3.992;2023-08-30T14:17:51;4.85;;;1.30;;
21591;SDS011;10958;50.892;3.992;2023-08-30T14:20:21;6.13;;;1.27;;
21591;SDS011;10958;50.892;3.992;2023-08-30T14:22:49;7.28;;;1.02;;
21591;SDS011;10958;50.892;3.992;2023-08-30T14:25:18;7.00;;;0.90;;
21591;SDS011;10958;50.892;3.992;2023-08-30T14:27:44;2.70;;;0.95;;
21591;SDS011;10958;50.892;3.992;2023-08-30T14:30:12;5.00;;;1.15;;
21591;SDS011;10958;50.892;3.992;2023-08-30T14:32:38;2.55;;;1.00;;
21591;SDS011;10958;50.892;3.992;2023-08-30T14:35:04;2.85;;;0.90;;
21591;SDS011;10958;50.892;3.992;2023-08-30T14:37:30;5.68;;;0.80;;
21591;SDS011;10958;50.892;3.992;2023-08-30T14:39:55;4.82;;;1.25;;
21591;SDS011;10958;50.892;3.992;2023-08-30T14:42:21;4.03;;;1.20;;
21591;SDS011;10958;50.892;3.992;2023-08-30T14:44:50;6.53;;;0.82;;
21591;SDS011;10958;50.892;3.992;2023-08-30T14:47:16;4.20;;;1.10;;
21591;SDS011;10958;50.892;3.992;2023-08-30T14:49:43;5.28;;;1.02;;
21591;SDS011;10958;50.892;3.992;2023-08-30T14:52:13;5.10;;;1.20;;
21591;SDS011;10958;50.892;3.992;2023-08-30T14:54:39;4.15;;;1.10;;
21591;SDS011;10958;50.892;3.992;2023-08-30T14:57:05;2.78;;;1.02;;
21591;SDS011;10958;50.892;3.992;2023-08-30T14:59:31;6.95;;;1.25;;
21591;SDS011;10958;50.892;3.992;2023-08-30T15:01:57;3.22;;;1.08;;
21591;SDS011;10958;50.892;3.992;2023-08-30T15:04:23;3.03;;;0.70;;
21591;SDS011;10958;50.892;3.992;2023-08-30T15:06:51;3.70;;;1.00;;
21591;SDS011;10958;50.892;3.992;2023-08-30T15:09:17;6.30;;;1.15;;